createdAt,value
2019-01-29T00:00:22.088Z,3.00
2019-01-29T00:02:50.495Z,3.10
2019-01-29T00:05:18.918Z,3.10
2019-01-29T00:07:47.413Z,3.00
2019-01-29T00:10:15.910Z,3.00
2019-01-29T00:12:44.416Z,3.00
2019-01-29T00:15:13.067Z,3.00
2019-01-29T00:17:41.521Z,3.10
2019-01-29T00:20:10.773Z,3.10
2019-01-29T00:22:39.218Z,3.00
2019-01-29T00:25:09.270Z,3.00
2019-01-29T00:27:37.705Z,3.10
2019-01-29T00:30:14.319Z,3.10
2019-01-29T00:32:42.764Z,3.10
2019-01-29T00:35:11.425Z,3.30
2019-01-29T00:37:39.872Z,3.30
2019-01-29T00:40:12.890Z,3.40
2019-01-29T00:42:41.328Z,3.20
2019-01-29T00:45:17.869Z,3.30
2019-01-29T00:47:46.406Z,3.20
2019-01-29T00:50:16.865Z,3.20
2019-01-29T00:52:45.273Z,3.20
2019-01-29T00:55:15.416Z,3.30
2019-01-29T00:57:44.001Z,3.30
2019-01-29T01:00:18.128Z,3.20
2019-01-29T01:02:46.650Z,3.20
2019-01-29T01:05:15.594Z,3.30
2019-01-29T01:07:44.193Z,3.30
2019-01-29T01:10:15.947Z,3.30
2019-01-29T01:12:44.350Z,3.30
2019-01-29T01:15:14.234Z,3.20
2019-01-29T01:17:43.178Z,3.20
2019-01-29T01:20:13.753Z,3.10
2019-01-29T01:22:50.378Z,3.10
2019-01-29T01:25:13.236Z,3.10
2019-01-29T01:27:41.746Z,3.00
2019-01-29T01:30:13.704Z,2.90
2019-01-29T01:32:42.252Z,2.90
2019-01-29T01:35:10.764Z,2.90
2019-01-29T01:37:39.253Z,2.90
2019-01-29T01:40:10.780Z,3.00
2019-01-29T01:42:39.200Z,2.90
2019-01-29T01:45:10.623Z,3.00
2019-01-29T01:47:39.088Z,3.00
2019-01-29T01:50:09.782Z,2.90
2019-01-29T01:52:38.212Z,2.90
2019-01-29T01:55:09.828Z,3.00
2019-01-29T01:57:38.236Z,3.00
2019-01-29T02:00:09.825Z,3.00
2019-01-29T02:02:38.252Z,3.00
2019-01-29T02:05:08.228Z,3.10
2019-01-29T02:07:36.668Z,3.20
2019-01-29T02:10:08.165Z,3.10
2019-01-29T02:12:36.626Z,3.10
2019-01-29T02:15:07.544Z,3.10
2019-01-29T02:17:35.960Z,3.00
2019-01-29T02:20:07.745Z,3.00
2019-01-29T02:22:36.184Z,3.00
2019-01-29T02:25:05.860Z,3.00
2019-01-29T02:27:34.357Z,3.00
2019-01-29T02:30:03.072Z,3.00
2019-01-29T02:32:31.582Z,2.90
2019-01-29T02:35:00.017Z,2.90
2019-01-29T02:37:28.530Z,2.90
2019-01-29T02:39:57.027Z,2.90
2019-01-29T02:42:25.472Z,2.90
2019-01-29T02:44:53.901Z,2.90
2019-01-29T02:47:22.349Z,2.80
2019-01-29T02:49:50.791Z,2.90
2019-01-29T02:52:19.284Z,2.90
2019-01-29T02:54:47.703Z,2.90
2019-01-29T02:57:16.155Z,2.90
2019-01-29T02:59:44.566Z,2.90
2019-01-29T03:02:13.068Z,2.90
2019-01-29T03:04:41.513Z,2.90
2019-01-29T03:07:10.110Z,2.80
2019-01-29T03:09:38.546Z,2.80
2019-01-29T03:12:06.964Z,2.80
2019-01-29T03:14:35.384Z,2.80
2019-01-29T03:17:03.900Z,2.80
2019-01-29T03:19:32.315Z,2.80
2019-01-29T03:22:00.788Z,2.90
2019-01-29T03:24:29.258Z,2.90
2019-01-29T03:26:57.754Z,2.90
2019-01-29T03:29:26.205Z,2.90
2019-01-29T03:31:55.176Z,2.90
2019-01-29T03:34:23.718Z,2.90
2019-01-29T03:36:52.215Z,3.00
2019-01-29T03:39:20.721Z,2.90
2019-01-29T03:41:49.183Z,2.90
2019-01-29T03:44:17.622Z,2.90
2019-01-29T03:46:46.045Z,2.90
2019-01-29T03:49:14.493Z,2.90
2019-01-29T03:51:42.899Z,2.90
2019-01-29T03:54:11.451Z,2.90
2019-01-29T03:56:39.891Z,2.90
2019-01-29T03:59:08.314Z,2.90
2019-01-29T04:01:36.821Z,2.80
2019-01-29T04:04:05.316Z,2.80
2019-01-29T04:06:33.769Z,2.80
2019-01-29T04:09:02.251Z,2.80
2019-01-29T04:11:30.755Z,2.80
2019-01-29T04:13:59.182Z,2.80
2019-01-29T04:16:28.549Z,2.80
2019-01-29T04:18:56.976Z,2.80
2019-01-29T04:21:25.897Z,2.80
2019-01-29T04:23:54.366Z,2.70
2019-01-29T04:26:22.876Z,2.60
2019-01-29T04:28:51.321Z,2.60
2019-01-29T04:31:19.754Z,2.50
2019-01-29T04:33:48.215Z,2.50
2019-01-29T04:36:16.639Z,2.50
2019-01-29T04:38:45.102Z,2.40
2019-01-29T04:41:13.526Z,2.50
2019-01-29T04:43:42.017Z,2.50
2019-01-29T04:46:10.449Z,2.60
2019-01-29T04:48:38.899Z,2.60
2019-01-29T04:51:07.337Z,2.60
2019-01-29T04:53:35.797Z,2.60
2019-01-29T04:56:04.371Z,2.60
2019-01-29T04:58:32.815Z,2.60
2019-01-29T05:01:01.281Z,2.60
2019-01-29T05:03:30.037Z,2.50
2019-01-29T05:05:58.502Z,2.50
2019-01-29T05:08:26.941Z,2.50
2019-01-29T05:10:55.346Z,2.50
2019-01-29T05:13:23.804Z,2.50
2019-01-29T05:15:52.258Z,2.50
2019-01-29T05:18:20.679Z,2.50
2019-01-29T05:20:49.105Z,2.50
2019-01-29T05:23:17.558Z,2.50
2019-01-29T05:25:45.970Z,2.50
2019-01-29T05:28:14.416Z,2.60
2019-01-29T05:30:42.861Z,2.50
2019-01-29T05:33:11.287Z,2.50
2019-01-29T05:35:39.723Z,2.50
2019-01-29T05:38:08.425Z,2.50
2019-01-29T05:40:36.877Z,2.50
2019-01-29T05:43:05.378Z,2.50
2019-01-29T05:45:33.815Z,2.50
2019-01-29T05:48:02.286Z,2.50
2019-01-29T05:50:31.547Z,2.50
2019-01-29T05:53:01.288Z,2.50
2019-01-29T05:55:29.707Z,2.50
2019-01-29T05:57:58.120Z,2.50
2019-01-29T06:00:31.896Z,2.50
2019-01-29T06:03:00.332Z,2.60
2019-01-29T06:05:28.899Z,2.60
2019-01-29T06:07:57.343Z,2.70
2019-01-29T06:10:25.873Z,2.70
2019-01-29T06:12:54.276Z,2.70
2019-01-29T06:15:25.951Z,2.60
2019-01-29T06:17:54.444Z,2.50
2019-01-29T06:20:30.521Z,2.40
2019-01-29T06:22:59.041Z,2.40
2019-01-29T06:25:27.459Z,2.30
2019-01-29T06:27:55.970Z,2.30
2019-01-29T06:30:26.119Z,2.30
2019-01-29T06:32:54.561Z,2.30
2019-01-29T06:35:23.213Z,2.20
2019-01-29T06:37:51.714Z,2.10
2019-01-29T06:40:22.807Z,2.10
2019-01-29T06:42:52.032Z,2.20
2019-01-29T06:45:24.715Z,2.20
2019-01-29T06:47:57.892Z,2.20
2019-01-29T06:50:31.797Z,2.20
2019-01-29T06:53:00.242Z,2.20
2019-01-29T06:55:30.171Z,2.20
2019-01-29T06:58:00.286Z,2.20
2019-01-29T07:00:35.122Z,2.20
2019-01-29T07:03:07.691Z,2.20
2019-01-29T07:05:40.445Z,2.10
2019-01-29T07:08:09.022Z,2.10
2019-01-29T07:10:37.496Z,2.00
2019-01-29T07:13:10.704Z,2.00
2019-01-29T07:16:03.273Z,2.00
2019-01-29T07:18:34.917Z,1.90
2019-01-29T07:21:08.798Z,1.90
2019-01-29T07:23:43.144Z,1.90
2019-01-29T07:26:15.308Z,1.90
2019-01-29T07:28:47.844Z,1.80
2019-01-29T07:31:17.630Z,1.70
2019-01-29T07:33:46.054Z,1.80
2019-01-29T07:36:16.540Z,1.80
2019-01-29T07:38:49.260Z,1.80
2019-01-29T07:41:22.612Z,1.80
2019-01-29T07:43:51.670Z,1.80
2019-01-29T07:46:20.972Z,1.90
2019-01-29T07:48:52.306Z,1.90
2019-01-29T07:51:26.211Z,2.10
2019-01-29T07:53:59.410Z,2.40
2019-01-29T07:56:32.463Z,2.40
2019-01-29T07:59:05.693Z,2.60
2019-01-29T08:01:38.665Z,2.80
2019-01-29T08:04:04.791Z,2.90
2019-01-29T08:06:35.073Z,3.00
2019-01-29T08:09:09.805Z,3.10
2019-01-29T08:11:42.813Z,3.20
2019-01-29T08:14:16.589Z,3.30
2019-01-29T08:16:49.820Z,3.30
2019-01-29T08:19:24.169Z,3.30
2019-01-29T08:21:58.059Z,3.50
2019-01-29T08:24:32.217Z,3.60
2019-01-29T08:27:05.521Z,3.60
2019-01-29T08:29:37.794Z,3.60
2019-01-29T08:32:06.400Z,3.60
2019-01-29T08:34:34.959Z,3.70
2019-01-29T08:37:07.334Z,3.80
2019-01-29T08:39:40.246Z,3.80
2019-01-29T08:42:09.651Z,3.80
2019-01-29T08:44:38.796Z,3.80
2019-01-29T08:47:09.246Z,3.80
2019-01-29T08:49:41.518Z,3.90
2019-01-29T08:52:17.344Z,3.90
2019-01-29T08:54:50.072Z,4.00
2019-01-29T08:57:23.440Z,4.00
2019-01-29T08:59:52.883Z,4.10
2019-01-29T09:02:21.368Z,4.10
2019-01-29T09:04:52.271Z,4.10
2019-01-29T09:07:24.904Z,4.20
2019-01-29T09:10:00.580Z,4.10
2019-01-29T09:12:35.127Z,4.00
2019-01-29T09:15:10.810Z,3.80
2019-01-29T09:17:42.566Z,3.80
2019-01-29T09:20:16.786Z,4.00
2019-01-29T09:22:49.427Z,3.90
2019-01-29T09:25:24.554Z,3.80
2019-01-29T09:27:58.660Z,3.70
2019-01-29T09:30:31.390Z,3.70
2019-01-29T09:33:04.638Z,3.70
2019-01-29T09:35:43.126Z,3.90
2019-01-29T09:38:03.296Z,3.90
2019-01-29T09:40:33.440Z,3.90
2019-01-29T09:43:06.422Z,3.90
2019-01-29T09:45:39.264Z,4.00
2019-01-29T09:48:12.079Z,4.00
2019-01-29T09:50:37.952Z,4.00
2019-01-29T09:53:08.020Z,3.90
2019-01-29T09:55:40.438Z,3.90
2019-01-29T09:58:09.897Z,4.00
2019-01-29T10:00:39.745Z,4.00
2019-01-29T10:03:11.188Z,4.10
2019-01-29T10:05:46.459Z,4.20
2019-01-29T10:08:17.710Z,4.20
2019-01-29T10:10:49.844Z,4.30
2019-01-29T10:13:24.563Z,4.30
2019-01-29T10:15:50.011Z,4.30
2019-01-29T10:18:18.449Z,4.40
2019-01-29T10:20:52.575Z,4.40
2019-01-29T10:23:24.818Z,4.50
2019-01-29T10:25:59.698Z,4.40
2019-01-29T10:28:24.877Z,4.40
2019-01-29T10:30:53.397Z,4.60
2019-01-29T10:33:27.557Z,4.60
2019-01-29T10:35:59.735Z,4.60
2019-01-29T10:38:30.963Z,4.60
2019-01-29T10:40:59.835Z,4.60
2019-01-29T10:43:28.371Z,4.60
2019-01-29T10:46:01.300Z,4.60
2019-01-29T10:48:36.440Z,4.60
2019-01-29T10:51:11.740Z,4.60
2019-01-29T10:53:45.189Z,4.60
2019-01-29T10:56:18.161Z,4.60
2019-01-29T10:58:53.658Z,4.50
2019-01-29T11:01:27.826Z,4.50
2019-01-29T11:04:02.546Z,4.60
2019-01-29T11:06:34.793Z,4.60
2019-01-29T11:09:10.662Z,4.60
2019-01-29T11:11:42.882Z,4.60
2019-01-29T11:14:16.516Z,4.70
2019-01-29T11:16:49.696Z,4.80
2019-01-29T11:19:22.296Z,5.00
2019-01-29T11:21:50.703Z,5.10
2019-01-29T11:24:19.219Z,5.00
2019-01-29T11:26:51.821Z,5.10
2019-01-29T11:29:24.514Z,5.10
2019-01-29T11:31:53.886Z,5.10
2019-01-29T11:34:22.788Z,5.00
2019-01-29T11:36:53.117Z,4.90
2019-01-29T11:39:26.994Z,4.90
2019-01-29T11:41:59.764Z,4.90
2019-01-29T11:44:33.154Z,4.90
2019-01-29T11:47:03.320Z,4.90
2019-01-29T11:49:31.720Z,5.00
2019-01-29T11:52:02.131Z,5.20
2019-01-29T11:54:34.849Z,5.20
2019-01-29T11:57:07.045Z,5.30
2019-01-29T11:59:35.956Z,5.30
2019-01-29T12:02:05.243Z,5.30
2019-01-29T12:04:36.629Z,5.30
2019-01-29T12:07:09.586Z,5.40
2019-01-29T12:09:42.754Z,5.40
2019-01-29T12:12:13.325Z,5.30
2019-01-29T12:14:41.481Z,5.10
2019-01-29T12:17:12.826Z,5.10
2019-01-29T12:19:45.769Z,5.00
2019-01-29T12:22:17.916Z,5.20
2019-01-29T12:24:47.639Z,5.30
2019-01-29T12:27:16.265Z,5.50
2019-01-29T12:29:47.754Z,5.50
2019-01-29T12:32:21.481Z,6.10
2019-01-29T12:34:54.499Z,6.20
2019-01-29T12:37:26.797Z,6.00
2019-01-29T12:39:59.813Z,5.90
2019-01-29T12:42:25.351Z,5.70
2019-01-29T12:44:55.424Z,5.40
2019-01-29T12:47:29.460Z,5.30
2019-01-29T12:50:02.527Z,5.40
2019-01-29T12:52:35.490Z,5.30
2019-01-29T12:55:09.730Z,5.20
2019-01-29T12:57:39.318Z,5.20
2019-01-29T13:00:19.141Z,5.20
2019-01-29T13:02:53.747Z,5.30
2019-01-29T13:05:25.981Z,5.30
2019-01-29T13:07:59.151Z,5.20
2019-01-29T13:10:27.795Z,5.20
2019-01-29T13:12:56.299Z,5.20
2019-01-29T13:15:34.407Z,5.10
2019-01-29T13:18:03.102Z,5.00
2019-01-29T13:20:36.047Z,5.00
2019-01-29T13:23:08.889Z,5.00
2019-01-29T13:25:45.646Z,4.90
2019-01-29T13:28:18.917Z,4.90
2019-01-29T13:30:51.859Z,4.90
2019-01-29T13:33:24.929Z,4.90
2019-01-29T13:35:53.338Z,4.90
2019-01-29T13:38:22.249Z,4.90
2019-01-29T13:40:54.964Z,4.90
2019-01-29T13:43:29.730Z,4.90
2019-01-29T13:46:01.681Z,4.80
2019-01-29T13:48:35.351Z,4.80
2019-01-29T13:51:08.162Z,4.70
2019-01-29T13:53:38.459Z,4.60
2019-01-29T13:56:07.018Z,4.60
2019-01-29T13:58:37.210Z,4.50
2019-01-29T14:01:11.857Z,4.50
2019-01-29T14:03:44.567Z,4.60
2019-01-29T14:06:19.945Z,4.60
2019-01-29T14:08:53.701Z,4.60
2019-01-29T14:11:26.588Z,4.60
2019-01-29T14:13:59.404Z,4.80
2019-01-29T14:16:39.050Z,4.80
2019-01-29T14:18:57.995Z,4.60
2019-01-29T14:21:28.269Z,4.60
2019-01-29T14:24:03.225Z,4.60
2019-01-29T14:26:37.529Z,4.60
2019-01-29T14:29:11.164Z,4.50
2019-01-29T14:31:44.547Z,4.40
2019-01-29T14:34:21.592Z,4.30
2019-01-29T14:36:52.083Z,4.20
2019-01-29T14:39:25.215Z,4.00
2019-01-29T14:41:58.486Z,4.10
2019-01-29T14:44:28.800Z,4.10
2019-01-29T14:46:57.240Z,4.30
2019-01-29T14:49:27.378Z,4.30
2019-01-29T14:52:00.532Z,4.30
2019-01-29T14:54:33.380Z,4.40
2019-01-29T14:57:03.642Z,4.50
2019-01-29T14:59:32.052Z,4.50
2019-01-29T15:02:02.259Z,4.40
2019-01-29T15:04:35.102Z,4.40
2019-01-29T15:07:10.349Z,4.30
2019-01-29T15:09:46.048Z,4.10
2019-01-29T15:12:17.882Z,3.90
2019-01-29T15:14:52.202Z,3.90
2019-01-29T15:17:26.804Z,3.90
2019-01-29T15:19:58.963Z,3.80
2019-01-29T15:22:33.819Z,3.80
2019-01-29T15:25:09.288Z,3.60
2019-01-29T15:27:42.295Z,3.60
2019-01-29T15:30:31.635Z,3.50
2019-01-29T15:33:05.821Z,3.50
2019-01-29T15:35:38.617Z,3.50
2019-01-29T15:38:17.782Z,3.40
2019-01-29T15:40:37.332Z,3.40
2019-01-29T15:43:07.808Z,3.30
2019-01-29T15:45:37.554Z,3.30
2019-01-29T15:48:06.404Z,3.30
2019-01-29T15:50:36.129Z,3.30
2019-01-29T15:53:05.779Z,3.20
2019-01-29T15:55:34.188Z,3.20
2019-01-29T15:58:02.758Z,3.20
2019-01-29T16:00:35.790Z,3.10
2019-01-29T16:03:05.063Z,3.10
2019-01-29T16:05:38.273Z,3.00
2019-01-29T16:08:09.727Z,3.00
2019-01-29T16:10:40.130Z,2.90
2019-01-29T16:13:08.969Z,2.90
2019-01-29T16:15:38.237Z,2.90
2019-01-29T16:18:06.948Z,2.80
2019-01-29T16:20:35.351Z,2.70
2019-01-29T16:23:04.262Z,2.70
2019-01-29T16:25:35.700Z,2.70
2019-01-29T16:28:04.271Z,2.70
2019-01-29T16:30:34.501Z,2.70
2019-01-29T16:33:03.097Z,2.60
2019-01-29T16:35:33.153Z,2.60
2019-01-29T16:38:01.587Z,2.50
2019-01-29T16:40:32.658Z,2.40
2019-01-29T16:43:01.187Z,2.30
2019-01-29T16:45:32.068Z,2.20
2019-01-29T16:48:01.938Z,2.10
2019-01-29T16:50:30.960Z,2.20
2019-01-29T16:52:59.813Z,2.10
2019-01-29T16:55:28.332Z,2.10
2019-01-29T16:57:56.956Z,2.20
2019-01-29T17:00:36.672Z,2.30
2019-01-29T17:03:05.431Z,2.40
2019-01-29T17:05:33.905Z,2.40
2019-01-29T17:08:03.292Z,2.40
2019-01-29T17:10:33.116Z,2.40
2019-01-29T17:13:01.562Z,2.40
2019-01-29T17:15:34.267Z,2.30
2019-01-29T17:18:02.820Z,2.30
2019-01-29T17:20:33.676Z,2.20
2019-01-29T17:23:02.252Z,2.10
2019-01-29T17:25:30.744Z,2.00
2019-01-29T17:27:59.244Z,2.00
2019-01-29T17:30:30.360Z,2.00
2019-01-29T17:32:58.834Z,1.90
2019-01-29T17:35:27.540Z,2.00
2019-01-29T17:37:55.976Z,2.00
2019-01-29T17:40:24.765Z,2.00
2019-01-29T17:42:53.257Z,2.00
2019-01-29T17:45:27.985Z,1.90
2019-01-29T17:47:56.456Z,1.80
2019-01-29T17:50:36.561Z,1.90
2019-01-29T17:53:05.256Z,1.90
2019-01-29T17:55:34.808Z,1.90
2019-01-29T17:58:03.488Z,1.90
2019-01-29T18:00:36.667Z,2.00
2019-01-29T18:03:05.961Z,1.90
2019-01-29T18:05:34.988Z,1.90
2019-01-29T18:08:03.775Z,1.80
2019-01-29T18:10:32.281Z,1.80
2019-01-29T18:13:00.703Z,1.80
2019-01-29T18:15:30.461Z,1.80
2019-01-29T18:17:58.964Z,1.80
2019-01-29T18:20:27.546Z,1.80
2019-01-29T18:22:55.982Z,1.80
2019-01-29T18:25:24.592Z,1.80
2019-01-29T18:28:00.933Z,1.80
2019-01-29T18:30:29.495Z,1.70
2019-01-29T18:33:06.469Z,1.70
2019-01-29T18:35:35.132Z,1.70
2019-01-29T18:38:03.824Z,1.70
2019-01-29T18:40:41.077Z,1.60
2019-01-29T18:43:09.783Z,1.70
2019-01-29T18:45:38.326Z,1.70
2019-01-29T18:48:06.776Z,1.70
2019-01-29T18:50:35.268Z,1.70
2019-01-29T18:53:03.776Z,1.70
2019-01-29T18:55:32.216Z,1.70
2019-01-29T18:58:11.227Z,1.70
2019-01-29T19:00:31.330Z,1.70
2019-01-29T19:03:00.013Z,1.70
2019-01-29T19:05:28.599Z,1.80
2019-01-29T19:07:57.108Z,1.70
2019-01-29T19:10:25.575Z,1.70
2019-01-29T19:12:54.525Z,1.70
2019-01-29T19:15:27.033Z,1.80
2019-01-29T19:17:55.524Z,1.80
2019-01-29T19:20:25.909Z,2.20
2019-01-29T19:22:54.658Z,2.00
2019-01-29T19:25:23.245Z,1.90
2019-01-29T19:27:51.798Z,2.00
2019-01-29T19:30:26.047Z,1.80
2019-01-29T19:32:54.730Z,1.80
2019-01-29T19:35:23.290Z,1.90
2019-01-29T19:37:51.808Z,1.90
2019-01-29T19:40:20.325Z,1.90
2019-01-29T19:42:48.775Z,1.90
2019-01-29T19:45:22.555Z,1.90
2019-01-29T19:47:51.031Z,1.90
2019-01-29T19:50:21.529Z,1.90
2019-01-29T19:52:50.493Z,1.90
2019-01-29T19:55:19.137Z,1.80
2019-01-29T19:57:47.739Z,1.80
2019-01-29T20:00:24.603Z,1.70
2019-01-29T20:02:53.149Z,1.80
2019-01-29T20:05:21.591Z,1.80
2019-01-29T20:07:50.169Z,1.80
2019-01-29T20:10:20.568Z,1.90
2019-01-29T20:12:49.177Z,1.90
2019-01-29T20:15:19.870Z,1.80
2019-01-29T20:17:49.403Z,1.80
2019-01-29T20:20:21.004Z,1.70
2019-01-29T20:22:49.470Z,1.70
2019-01-29T20:25:18.050Z,1.70
2019-01-29T20:27:46.604Z,1.70
2019-01-29T20:30:17.955Z,1.70
2019-01-29T20:32:53.241Z,1.70
2019-01-29T20:35:16.893Z,1.70
2019-01-29T20:37:45.477Z,1.80
2019-01-29T20:40:16.817Z,1.80
2019-01-29T20:42:45.333Z,1.80
2019-01-29T20:45:15.114Z,1.80
2019-01-29T20:47:43.584Z,1.70
2019-01-29T20:50:20.645Z,1.80
2019-01-29T20:52:49.179Z,1.80
2019-01-29T20:55:17.778Z,1.80
2019-01-29T20:57:46.270Z,1.80
2019-01-29T21:00:17.967Z,1.80
2019-01-29T21:02:46.609Z,1.80
2019-01-29T21:05:16.986Z,1.80
2019-01-29T21:07:47.803Z,1.80
2019-01-29T21:10:24.947Z,1.80
2019-01-29T21:12:53.664Z,1.70
2019-01-29T21:15:26.643Z,1.80
2019-01-29T21:17:55.622Z,1.80
2019-01-29T21:20:26.305Z,1.80
2019-01-29T21:22:54.899Z,1.80
2019-01-29T21:25:23.382Z,1.80
2019-01-29T21:27:52.183Z,1.80
2019-01-29T21:30:28.839Z,1.80
2019-01-29T21:32:58.195Z,1.90
2019-01-29T21:35:26.777Z,1.90
2019-01-29T21:37:55.281Z,2.00
2019-01-29T21:40:24.106Z,2.00
2019-01-29T21:42:52.891Z,2.00
2019-01-29T21:45:22.635Z,2.10
2019-01-29T21:47:51.943Z,2.10
2019-01-29T21:50:25.668Z,2.10
2019-01-29T21:52:54.179Z,2.10
2019-01-29T21:55:31.726Z,2.60
2019-01-29T21:58:00.338Z,2.90
2019-01-29T22:00:32.531Z,2.40
2019-01-29T22:03:01.126Z,2.20
2019-01-29T22:05:29.679Z,2.10
2019-01-29T22:07:59.155Z,2.00
2019-01-29T22:10:27.781Z,2.00
2019-01-29T22:12:56.261Z,1.90
2019-01-29T22:15:25.423Z,1.80
2019-01-29T22:17:54.434Z,1.80
2019-01-29T22:20:24.289Z,1.80
2019-01-29T22:22:52.910Z,1.80
2019-01-29T22:25:25.156Z,1.70
2019-01-29T22:27:53.731Z,1.80
2019-01-29T22:30:25.366Z,2.30
2019-01-29T22:32:53.964Z,2.20
2019-01-29T22:35:22.510Z,2.00
2019-01-29T22:37:57.987Z,1.90
2019-01-29T22:40:31.175Z,1.80
2019-01-29T22:43:01.391Z,1.80
2019-01-29T22:45:30.963Z,1.80
2019-01-29T22:47:59.551Z,1.80
2019-01-29T22:50:31.076Z,1.70
2019-01-29T22:53:00.044Z,1.70
2019-01-29T22:55:30.754Z,1.70
2019-01-29T22:58:01.174Z,1.70
2019-01-29T23:01:00.182Z,1.80
2019-01-29T23:03:37.380Z,1.80
2019-01-29T23:06:11.484Z,1.80
2019-01-29T23:08:39.911Z,1.80
2019-01-29T23:11:08.592Z,1.80
2019-01-29T23:13:37.075Z,1.70
2019-01-29T23:16:05.856Z,1.80
2019-01-29T23:18:34.295Z,1.80
2019-01-29T23:21:02.721Z,1.80
2019-01-29T23:23:31.841Z,1.90
2019-01-29T23:26:00.297Z,1.90
2019-01-29T23:28:28.740Z,1.90
2019-01-29T23:30:57.186Z,1.90
2019-01-29T23:33:25.892Z,1.90
2019-01-29T23:35:54.342Z,1.90
2019-01-29T23:38:22.761Z,1.90
2019-01-29T23:40:51.216Z,1.90
2019-01-29T23:43:19.670Z,1.90
2019-01-29T23:45:48.089Z,1.90
2019-01-29T23:48:16.696Z,1.80
2019-01-29T23:50:45.183Z,1.80
2019-01-29T23:53:13.641Z,1.70
2019-01-29T23:55:42.063Z,1.80
2019-01-29T23:58:10.479Z,1.70
